Terminal Aerodrome Forecast
Issued by NWS

Home | Current Version | Previous Version | Text Only | Print | Product List | Glossary On
Versions: 1 2 3 4 5 6 7 8 9 10 11 12 13 14 15 16 17 18 19 20 21 22 23 24 25 26 27 28 29 30 31
000
FTUS46 KMTR 230500
TAFSFO
TAF
KSFO 230534Z 2306/2412 28013KT P6SM FEW180
     FM230900 27006KT P6SM FEW180
     FM231300 27006KT P6SM BKN015
     FM231730 26005KT P6SM FEW015
     FM232300 27015KT P6SM FEW015
     FM240300 27010KT P6SM BKN200
     FM240900 25006KT P6SM OVC015=

USA.gov is the U.S. government's official web portal to all federal, state and local government web resources and services.